createdAt,value
2016-11-06T00:00:15.562Z,993.44
2016-11-06T00:01:15.581Z,993.43
2016-11-06T00:02:15.600Z,993.46
2016-11-06T00:03:15.618Z,993.43
2016-11-06T00:05:15.656Z,993.4
2016-11-06T00:06:15.678Z,993.44
2016-11-06T00:07:15.704Z,993.45
2016-11-06T00:08:15.713Z,993.41
2016-11-06T00:09:15.735Z,993.34
2016-11-06T00:10:15.754Z,993.3
2016-11-06T00:11:15.772Z,993.31
2016-11-06T00:12:15.792Z,993.33
2016-11-06T00:13:15.812Z,993.4
2016-11-06T00:14:15.829Z,993.38
2016-11-06T00:15:15.848Z,993.37
2016-11-06T00:16:15.869Z,993.36
2016-11-06T00:17:15.889Z,993.27
2016-11-06T00:18:15.908Z,993.32
2016-11-06T00:19:15.924Z,993.27
2016-11-06T00:21:15.963Z,993.26
2016-11-06T00:22:15.983Z,993.27
2016-11-06T00:23:16.001Z,993.26
2016-11-06T00:24:16.023Z,993.26
2016-11-06T00:25:16.040Z,993.32
2016-11-06T00:26:16.058Z,993.41
2016-11-06T00:27:16.080Z,993.43
2016-11-06T00:28:16.097Z,993.4
2016-11-06T00:29:16.116Z,993.41
2016-11-06T00:30:16.135Z,993.45
2016-11-06T00:31:16.154Z,993.48
2016-11-06T00:32:16.173Z,993.56
2016-11-06T00:33:16.195Z,993.51
2016-11-06T00:34:16.212Z,993.52
2016-11-06T00:36:16.253Z,993.63
2016-11-06T00:37:16.272Z,993.67
2016-11-06T00:38:16.288Z,993.67
2016-11-06T00:39:16.310Z,993.54
2016-11-06T00:40:16.327Z,993.51
2016-11-06T00:41:16.345Z,993.58
2016-11-06T00:42:16.367Z,993.6
2016-11-06T00:43:16.386Z,993.54
2016-11-06T00:44:16.404Z,993.48
2016-11-06T00:45:16.421Z,993.48
2016-11-06T00:46:16.441Z,993.54
2016-11-06T00:47:16.464Z,993.51
2016-11-06T00:48:16.478Z,993.49
2016-11-06T00:49:16.499Z,993.45
2016-11-06T00:50:16.517Z,993.48
2016-11-06T00:51:16.536Z,993.5
2016-11-06T00:52:16.556Z,993.54
2016-11-06T00:53:16.575Z,993.52
2016-11-06T00:54:16.594Z,993.56
2016-11-06T00:55:16.613Z,993.57
2016-11-06T00:56:16.632Z,993.62
2016-11-06T00:57:16.651Z,993.56
2016-11-06T00:58:16.669Z,993.49
2016-11-06T00:59:16.689Z,993.49
2016-11-06T01:00:16.707Z,993.5
2016-11-06T01:01:16.725Z,993.47
2016-11-06T01:02:16.744Z,993.51
2016-11-06T01:03:16.764Z,993.45
2016-11-06T01:04:16.783Z,993.46
2016-11-06T01:05:16.802Z,993.51
2016-11-06T01:06:16.821Z,993.56
2016-11-06T01:08:16.859Z,993.62
2016-11-06T01:09:16.926Z,993.63
2016-11-06T01:10:16.894Z,993.6
2016-11-06T01:11:16.915Z,993.57
2016-11-06T01:12:16.933Z,993.56
2016-11-06T01:13:16.952Z,993.5
2016-11-06T01:14:17.270Z,993.48
2016-11-06T01:15:16.989Z,993.48
2016-11-06T01:16:17.009Z,993.43
2016-11-06T01:17:17.028Z,993.41
2016-11-06T01:18:17.047Z,993.42
2016-11-06T01:19:17.067Z,993.41
2016-11-06T01:20:17.087Z,993.48
2016-11-06T01:21:17.107Z,993.49
2016-11-06T01:22:17.123Z,993.51
2016-11-06T01:24:17.161Z,993.47
2016-11-06T01:25:17.177Z,993.44
2016-11-06T01:26:17.196Z,993.4
2016-11-06T01:27:17.218Z,993.45
2016-11-06T01:28:17.236Z,993.49
2016-11-06T01:29:17.255Z,993.5
2016-11-06T01:30:17.274Z,993.5
2016-11-06T01:31:17.293Z,993.47
2016-11-06T01:32:17.311Z,993.47
2016-11-06T01:33:17.330Z,993.43
2016-11-06T01:34:17.348Z,993.45
2016-11-06T01:35:17.367Z,993.41
2016-11-06T01:36:17.384Z,993.35
2016-11-06T01:37:17.406Z,993.4
2016-11-06T01:38:17.425Z,993.36
2016-11-06T01:40:17.462Z,993.4
2016-11-06T01:41:17.479Z,993.42
2016-11-06T01:42:17.501Z,993.36
2016-11-06T01:43:17.516Z,993.36
2016-11-06T01:44:17.538Z,993.31
2016-11-06T01:45:17.557Z,993.29
2016-11-06T01:46:17.574Z,993.34
2016-11-06T01:47:17.594Z,993.4
2016-11-06T01:48:17.612Z,993.43
2016-11-06T01:49:17.631Z,993.45
2016-11-06T01:50:17.653Z,993.49
2016-11-06T01:51:17.670Z,993.5
2016-11-06T01:52:17.689Z,993.46
2016-11-06T01:53:17.709Z,993.47
2016-11-06T01:54:17.727Z,993.49
2016-11-06T01:56:17.765Z,993.5
2016-11-06T01:57:17.782Z,993.48
2016-11-06T01:58:17.801Z,993.44
2016-11-06T01:59:17.820Z,993.45
2016-11-06T02:00:17.839Z,993.45
2016-11-06T02:01:17.859Z,993.48
2016-11-06T02:02:17.879Z,993.45
2016-11-06T02:03:17.896Z,993.44
2016-11-06T02:04:17.915Z,993.47
2016-11-06T02:05:17.936Z,993.4
2016-11-06T02:06:17.955Z,993.4
2016-11-06T02:07:17.972Z,993.4
2016-11-06T02:08:17.992Z,993.41
2016-11-06T02:09:18.014Z,993.41
2016-11-06T02:11:18.049Z,993.4
2016-11-06T02:12:18.069Z,993.4
2016-11-06T02:13:18.107Z,993.45
2016-11-06T02:14:18.105Z,993.38
2016-11-06T02:15:18.126Z,993.39
2016-11-06T02:16:18.142Z,993.38
2016-11-06T02:17:18.162Z,993.39
2016-11-06T02:18:18.181Z,993.4
2016-11-06T02:19:18.204Z,993.34
2016-11-06T02:20:18.220Z,993.34
2016-11-06T02:21:18.238Z,993.34
2016-11-06T02:22:18.259Z,993.35
2016-11-06T02:23:18.277Z,993.33
2016-11-06T02:24:18.297Z,993.35
2016-11-06T02:25:18.316Z,993.33
2016-11-06T02:26:18.336Z,993.34
2016-11-06T02:27:18.354Z,993.31
2016-11-06T02:28:18.371Z,993.31
2016-11-06T02:29:18.391Z,993.29
2016-11-06T02:30:18.411Z,993.33
2016-11-06T02:31:18.430Z,993.32
2016-11-06T02:32:18.450Z,993.35
2016-11-06T02:33:18.469Z,993.36
2016-11-06T02:34:18.488Z,993.37
2016-11-06T02:35:18.505Z,993.38
2016-11-06T02:36:18.526Z,993.37
2016-11-06T02:37:18.544Z,993.38
2016-11-06T02:38:18.562Z,993.39
2016-11-06T02:39:18.583Z,993.43
2016-11-06T02:40:18.603Z,993.43
2016-11-06T02:41:18.619Z,993.46
2016-11-06T02:43:18.658Z,993.43
2016-11-06T02:44:18.677Z,993.46
2016-11-06T02:45:18.696Z,993.44
2016-11-06T02:46:18.717Z,993.4
2016-11-06T02:47:18.734Z,993.42
2016-11-06T02:48:18.754Z,993.41
2016-11-06T02:49:18.774Z,993.37
2016-11-06T02:50:18.794Z,993.38
2016-11-06T02:51:18.813Z,993.35
2016-11-06T02:52:18.832Z,993.38
2016-11-06T02:53:18.851Z,993.4
2016-11-06T02:54:18.873Z,993.39
2016-11-06T02:55:18.887Z,993.45
2016-11-06T02:56:18.908Z,993.5
2016-11-06T02:57:18.925Z,993.52
2016-11-06T02:59:18.964Z,993.45
2016-11-06T03:00:18.985Z,993.41
2016-11-06T03:01:19.004Z,993.43
2016-11-06T03:02:19.024Z,993.46
2016-11-06T03:03:19.040Z,993.41
2016-11-06T03:04:19.062Z,993.46
2016-11-06T03:05:19.081Z,993.43
2016-11-06T03:06:19.100Z,993.43
2016-11-06T03:07:19.118Z,993.42
2016-11-06T03:08:19.138Z,993.43
2016-11-06T03:09:19.158Z,993.43
2016-11-06T03:10:19.175Z,993.47
2016-11-06T03:11:19.193Z,993.45
2016-11-06T03:12:19.215Z,993.46
2016-11-06T03:13:19.232Z,993.47
2016-11-06T03:15:19.272Z,993.46
2016-11-06T03:16:19.289Z,993.51
2016-11-06T03:17:19.311Z,993.53
2016-11-06T03:18:19.327Z,993.57
2016-11-06T03:19:19.349Z,993.55
2016-11-06T03:20:19.367Z,993.57
2016-11-06T03:21:19.385Z,993.6
2016-11-06T03:22:19.403Z,993.58
2016-11-06T03:23:19.422Z,993.6
2016-11-06T03:24:19.442Z,993.6
2016-11-06T03:25:19.462Z,993.64
2016-11-06T03:26:19.479Z,993.68
2016-11-06T03:27:19.501Z,993.68
2016-11-06T03:28:19.518Z,993.71
2016-11-06T03:29:19.536Z,993.73
2016-11-06T03:31:19.574Z,993.75
2016-11-06T03:32:19.595Z,993.75
2016-11-06T03:33:19.614Z,993.75
2016-11-06T03:34:19.632Z,993.69
2016-11-06T03:35:19.652Z,993.73
2016-11-06T03:36:19.671Z,993.76
2016-11-06T03:37:19.688Z,993.75
2016-11-06T03:38:19.706Z,993.82
2016-11-06T03:39:19.728Z,993.77
2016-11-06T03:40:19.745Z,993.76
2016-11-06T03:41:19.765Z,993.76
2016-11-06T03:42:19.782Z,993.7
2016-11-06T03:43:19.803Z,993.73
2016-11-06T03:44:19.820Z,993.72
2016-11-06T03:46:19.858Z,993.77
2016-11-06T03:47:19.884Z,993.77
2016-11-06T03:48:19.896Z,993.81
2016-11-06T03:49:19.915Z,993.77
2016-11-06T03:50:19.934Z,993.77
2016-11-06T03:51:19.954Z,993.75
2016-11-06T03:52:19.973Z,993.75
2016-11-06T03:53:19.992Z,993.81
2016-11-06T03:54:20.008Z,993.76
2016-11-06T03:55:20.029Z,993.74
2016-11-06T03:56:20.048Z,993.69
2016-11-06T03:57:20.065Z,993.67
2016-11-06T03:58:20.085Z,993.66
2016-11-06T03:59:20.106Z,993.67
2016-11-06T04:00:20.122Z,993.7
2016-11-06T04:01:20.141Z,993.72
2016-11-06T04:02:20.159Z,993.75
2016-11-06T04:03:20.180Z,993.77
2016-11-06T04:04:20.199Z,993.82
2016-11-06T04:05:20.215Z,993.83
2016-11-06T04:06:20.236Z,993.89
2016-11-06T04:07:20.255Z,993.91
2016-11-06T04:08:20.272Z,993.93
2016-11-06T04:09:20.292Z,993.9
2016-11-06T04:10:20.311Z,993.85
2016-11-06T04:11:20.330Z,993.86
2016-11-06T04:12:20.347Z,993.83
2016-11-06T04:13:20.367Z,993.82
2016-11-06T04:14:20.384Z,993.83
2016-11-06T04:15:20.403Z,993.83
2016-11-06T04:16:20.424Z,993.83
2016-11-06T04:18:20.460Z,993.85
2016-11-06T04:19:20.481Z,993.92
2016-11-06T04:20:20.497Z,993.89
2016-11-06T04:21:20.518Z,993.92
2016-11-06T04:22:20.537Z,993.81
2016-11-06T04:23:20.554Z,993.84
2016-11-06T04:24:20.573Z,993.75
2016-11-06T04:25:20.591Z,993.77
2016-11-06T04:26:20.612Z,993.73
2016-11-06T04:27:20.628Z,993.74
2016-11-06T04:28:20.650Z,993.77
2016-11-06T04:29:20.669Z,993.76
2016-11-06T04:30:20.686Z,993.74
2016-11-06T04:31:20.703Z,993.71
2016-11-06T04:32:20.724Z,993.72
2016-11-06T04:34:20.761Z,993.69
2016-11-06T04:35:20.779Z,993.7
2016-11-06T04:36:20.798Z,993.63
2016-11-06T04:37:20.817Z,993.71
2016-11-06T04:38:20.838Z,993.71
2016-11-06T04:39:20.853Z,993.74
2016-11-06T04:40:20.875Z,993.75
2016-11-06T04:41:20.894Z,993.76
2016-11-06T04:42:20.912Z,993.75
2016-11-06T04:43:20.931Z,993.72
2016-11-06T04:44:20.947Z,993.73
2016-11-06T04:45:20.966Z,993.75
2016-11-06T04:46:20.984Z,993.71
2016-11-06T04:47:21.004Z,993.71
2016-11-06T04:48:21.022Z,993.68
2016-11-06T04:50:21.062Z,993.74
2016-11-06T04:51:21.080Z,993.77
2016-11-06T04:52:21.096Z,993.82
2016-11-06T04:53:21.114Z,993.84
2016-11-06T04:54:21.133Z,993.93
2016-11-06T04:55:21.154Z,993.93
2016-11-06T04:56:21.173Z,993.93
2016-11-06T04:57:21.188Z,993.87
2016-11-06T04:58:21.209Z,993.88
2016-11-06T04:59:21.226Z,993.9
2016-11-06T05:00:21.244Z,993.95
2016-11-06T05:01:21.262Z,993.94
2016-11-06T05:02:21.283Z,993.95
2016-11-06T05:03:21.302Z,993.94
2016-11-06T05:04:21.320Z,993.95
2016-11-06T05:06:21.355Z,993.9
2016-11-06T05:07:21.375Z,993.93
2016-11-06T05:08:21.394Z,993.94
2016-11-06T05:09:21.411Z,993.98
2016-11-06T05:10:21.431Z,993.98
2016-11-06T05:11:21.448Z,993.94
2016-11-06T05:12:21.467Z,993.94
2016-11-06T05:13:21.486Z,993.95
2016-11-06T05:14:21.505Z,993.91
2016-11-06T05:15:21.522Z,993.94
2016-11-06T05:16:21.539Z,993.88
2016-11-06T05:17:21.558Z,993.91
2016-11-06T05:18:21.577Z,993.92
2016-11-06T05:19:21.595Z,993.91
2016-11-06T05:21:21.633Z,993.93
2016-11-06T05:22:21.653Z,993.94
2016-11-06T05:23:21.672Z,993.96
2016-11-06T05:24:21.691Z,993.98
2016-11-06T05:25:21.708Z,994
2016-11-06T05:26:21.727Z,993.99
2016-11-06T05:27:21.744Z,994
2016-11-06T05:28:21.763Z,994.03
2016-11-06T05:29:21.781Z,994.02
2016-11-06T05:30:21.800Z,994
2016-11-06T05:31:21.819Z,994.01
2016-11-06T05:32:21.840Z,994.07
2016-11-06T05:33:21.855Z,994.04
2016-11-06T05:34:21.876Z,994.05
2016-11-06T05:35:21.893Z,994.05
2016-11-06T05:36:21.914Z,994.03
2016-11-06T05:37:21.932Z,994.04
2016-11-06T05:38:21.951Z,994.04
2016-11-06T05:39:21.970Z,994.03
2016-11-06T05:40:21.988Z,994
2016-11-06T05:41:22.005Z,994.07
2016-11-06T05:42:22.062Z,994.02
2016-11-06T05:43:22.042Z,994.03
2016-11-06T05:44:22.060Z,994.07
2016-11-06T05:45:22.079Z,994.07
2016-11-06T05:46:22.098Z,994.07
2016-11-06T05:47:22.119Z,994.06
2016-11-06T05:48:22.137Z,993.97
2016-11-06T05:49:22.154Z,994
2016-11-06T05:50:22.172Z,993.98
2016-11-06T05:51:22.191Z,994.02
2016-11-06T05:53:22.228Z,993.98
2016-11-06T05:54:22.247Z,993.99
2016-11-06T05:55:22.267Z,994.01
2016-11-06T05:56:22.284Z,994.05
2016-11-06T05:57:22.305Z,994.06
2016-11-06T05:58:22.324Z,994.09
2016-11-06T05:59:22.342Z,994.1
2016-11-06T06:00:22.361Z,994.08
2016-11-06T06:01:22.380Z,994.14
2016-11-06T06:02:22.396Z,994.11
2016-11-06T06:03:22.415Z,994.12
2016-11-06T06:04:22.434Z,994.08
2016-11-06T06:05:22.454Z,994.07
2016-11-06T06:06:22.470Z,994.1
2016-11-06T06:07:22.489Z,994.03
2016-11-06T06:09:22.528Z,994.02
2016-11-06T06:10:22.547Z,994.06
2016-11-06T06:11:22.565Z,994.05
2016-11-06T06:12:22.584Z,994.01
2016-11-06T06:13:22.601Z,994.04
2016-11-06T06:14:22.622Z,994.05
2016-11-06T06:15:22.639Z,994.1
2016-11-06T06:16:22.658Z,994.17
2016-11-06T06:17:22.678Z,994.14
2016-11-06T06:18:22.695Z,994.15
2016-11-06T06:19:22.716Z,994.24
2016-11-06T06:20:22.735Z,994.21
2016-11-06T06:21:22.751Z,994.21
2016-11-06T06:22:22.772Z,994.21
2016-11-06T06:23:22.789Z,994.22
2016-11-06T06:25:22.828Z,994.19
2016-11-06T06:26:22.846Z,994.24
2016-11-06T06:27:22.863Z,994.24
2016-11-06T06:28:22.882Z,994.27
2016-11-06T06:29:22.903Z,994.24
2016-11-06T06:30:22.919Z,994.29
2016-11-06T06:31:22.939Z,994.25
2016-11-06T06:32:22.959Z,994.29
2016-11-06T06:33:22.979Z,994.24
2016-11-06T06:34:22.997Z,994.21
2016-11-06T06:35:23.263Z,994.26
2016-11-06T06:36:23.032Z,994.26
2016-11-06T06:37:23.050Z,994.31
2016-11-06T06:38:23.070Z,994.3
2016-11-06T06:39:23.090Z,994.29
2016-11-06T06:41:23.126Z,994.26
2016-11-06T06:42:23.147Z,994.25
2016-11-06T06:43:23.163Z,994.29
2016-11-06T06:44:23.182Z,994.27
2016-11-06T06:45:23.201Z,994.27
2016-11-06T06:46:23.219Z,994.28
2016-11-06T06:47:23.240Z,994.29
2016-11-06T06:48:23.257Z,994.26
2016-11-06T06:49:23.277Z,994.26
2016-11-06T06:50:23.297Z,994.18
2016-11-06T06:51:23.314Z,994.16
2016-11-06T06:52:23.332Z,994.14
2016-11-06T06:53:23.354Z,994.13
2016-11-06T06:54:23.371Z,994.12
2016-11-06T06:56:23.409Z,994.14
2016-11-06T06:57:23.429Z,994.14
2016-11-06T06:58:23.448Z,994.1
2016-11-06T06:59:23.465Z,994.11
2016-11-06T07:00:23.487Z,994.16
2016-11-06T07:01:23.505Z,994.14
2016-11-06T07:02:23.522Z,994.15
2016-11-06T07:03:23.543Z,994.16
2016-11-06T07:04:23.561Z,994.09
2016-11-06T07:05:23.578Z,994.14
2016-11-06T07:06:23.597Z,994.15
2016-11-06T07:07:23.619Z,994.14
2016-11-06T07:08:23.635Z,994.12
2016-11-06T07:09:23.656Z,994.14
2016-11-06T07:10:23.676Z,994.11
2016-11-06T07:11:23.695Z,994.17
2016-11-06T07:12:23.713Z,994.17
2016-11-06T07:13:23.732Z,994.17
2016-11-06T07:14:23.751Z,994.16
2016-11-06T07:15:23.768Z,994.17
2016-11-06T07:16:23.789Z,994.16
2016-11-06T07:17:23.808Z,994.15
2016-11-06T07:18:23.827Z,994.24
2016-11-06T07:19:23.843Z,994.23
2016-11-06T07:20:23.865Z,994.19
2016-11-06T07:21:23.884Z,994.19
2016-11-06T07:22:23.902Z,994.19
2016-11-06T07:23:23.921Z,994.13
2016-11-06T07:24:23.941Z,994.12
2016-11-06T07:25:23.960Z,994.12
2016-11-06T07:26:23.977Z,994.16
2016-11-06T07:28:24.017Z,994.14
2016-11-06T07:29:24.034Z,994.13
2016-11-06T07:30:24.055Z,994.15
2016-11-06T07:31:24.072Z,994.13
2016-11-06T07:32:24.092Z,994.15
2016-11-06T07:33:24.113Z,994.13
2016-11-06T07:34:24.138Z,994.15
2016-11-06T07:35:24.149Z,994.21
2016-11-06T07:36:24.169Z,994.16
2016-11-06T07:37:24.189Z,994.17
2016-11-06T07:38:24.209Z,994.14
2016-11-06T07:39:24.226Z,994.2
2016-11-06T07:40:24.247Z,994.24
2016-11-06T07:41:24.266Z,994.25
2016-11-06T07:42:24.286Z,994.24
2016-11-06T07:44:24.323Z,994.19
2016-11-06T07:45:24.341Z,994.2
2016-11-06T07:46:24.363Z,994.18
2016-11-06T07:47:24.382Z,994.13
2016-11-06T07:48:24.399Z,994.12
2016-11-06T07:49:24.421Z,994.14
2016-11-06T07:50:24.438Z,994.14
2016-11-06T07:51:24.460Z,994.13
2016-11-06T07:52:24.478Z,994.15
2016-11-06T07:53:24.498Z,994.14
2016-11-06T07:54:24.515Z,994.12
2016-11-06T07:55:24.537Z,994.18
2016-11-06T07:56:24.581Z,994.1
2016-11-06T07:57:24.575Z,994.12
2016-11-06T07:58:24.592Z,994.11
2016-11-06T08:00:24.630Z,994.14
2016-11-06T08:01:24.650Z,994.07
2016-11-06T08:02:24.670Z,994.04
2016-11-06T08:03:24.688Z,994.05
2016-11-06T08:04:24.710Z,994.08
2016-11-06T08:05:24.829Z,994.1
2016-11-06T08:06:24.747Z,994.11
2016-11-06T08:07:24.767Z,994.16
2016-11-06T08:08:24.785Z,994.16
2016-11-06T08:09:24.804Z,994.21
2016-11-06T08:10:24.825Z,994.25
2016-11-06T08:11:24.844Z,994.25
2016-11-06T08:12:24.862Z,994.25
2016-11-06T08:13:24.882Z,994.28
2016-11-06T08:14:24.900Z,994.3
2016-11-06T08:16:24.941Z,994.28
2016-11-06T08:17:24.961Z,994.27
2016-11-06T08:18:24.979Z,994.26
2016-11-06T08:19:24.999Z,994.23
2016-11-06T08:20:25.016Z,994.24
2016-11-06T08:21:25.035Z,994.26
2016-11-06T08:22:25.056Z,994.3
2016-11-06T08:23:25.074Z,994.32
2016-11-06T08:24:25.096Z,994.33
2016-11-06T08:25:25.115Z,994.34
2016-11-06T08:26:25.132Z,994.39
2016-11-06T08:27:25.151Z,994.39
2016-11-06T08:28:25.173Z,994.33
2016-11-06T08:29:25.191Z,994.35
2016-11-06T08:31:25.232Z,994.27
2016-11-06T08:32:25.248Z,994.28
2016-11-06T08:33:25.269Z,994.25
2016-11-06T08:34:25.288Z,994.28
2016-11-06T08:35:25.307Z,994.32
2016-11-06T08:36:25.327Z,994.33
2016-11-06T08:37:25.346Z,994.36
2016-11-06T08:38:25.365Z,994.39
2016-11-06T08:39:25.386Z,994.42
2016-11-06T08:40:25.406Z,994.4
2016-11-06T08:41:25.423Z,994.42
2016-11-06T08:42:25.445Z,994.42
2016-11-06T08:43:25.464Z,994.41
2016-11-06T08:44:25.484Z,994.47
2016-11-06T08:45:25.502Z,994.44
2016-11-06T08:46:25.521Z,994.45
2016-11-06T08:47:25.540Z,994.45
2016-11-06T08:48:25.560Z,994.43
2016-11-06T08:49:25.579Z,994.41
2016-11-06T08:50:25.601Z,994.42
2016-11-06T08:51:25.618Z,994.41
2016-11-06T08:52:25.638Z,994.38
2016-11-06T08:53:25.658Z,994.39
2016-11-06T08:54:25.679Z,994.42
2016-11-06T08:55:25.699Z,994.46
2016-11-06T08:56:25.719Z,994.44
2016-11-06T08:57:25.739Z,994.46
2016-11-06T08:58:25.757Z,994.46
2016-11-06T08:59:25.778Z,994.47
2016-11-06T09:00:25.796Z,994.49
2016-11-06T09:01:25.818Z,994.47
2016-11-06T09:03:25.856Z,994.51
2016-11-06T09:04:25.879Z,994.52
2016-11-06T09:05:25.896Z,994.56
2016-11-06T09:06:25.918Z,994.54
2016-11-06T09:07:25.936Z,994.56
2016-11-06T09:08:25.956Z,994.53
2016-11-06T09:09:25.976Z,994.59
2016-11-06T09:10:25.998Z,994.56
2016-11-06T09:11:26.016Z,994.58
2016-11-06T09:12:26.036Z,994.59
2016-11-06T09:13:26.056Z,994.57
2016-11-06T09:14:26.079Z,994.55
2016-11-06T09:15:26.097Z,994.55
2016-11-06T09:16:26.117Z,994.56
2016-11-06T09:17:26.140Z,994.56
2016-11-06T09:19:26.181Z,994.58
2016-11-06T09:20:26.200Z,994.61
2016-11-06T09:21:26.218Z,994.57
2016-11-06T09:22:26.241Z,994.56
2016-11-06T09:23:26.258Z,994.56
2016-11-06T09:24:26.281Z,994.53
2016-11-06T09:25:26.302Z,994.55
2016-11-06T09:26:26.323Z,994.56
2016-11-06T09:27:26.340Z,994.57
2016-11-06T09:28:26.360Z,994.6
2016-11-06T09:29:26.382Z,994.54
2016-11-06T09:30:26.402Z,994.57
2016-11-06T09:31:26.422Z,994.54
2016-11-06T09:32:26.444Z,994.57
2016-11-06T09:33:26.463Z,994.59
2016-11-06T09:35:26.506Z,994.67
2016-11-06T09:36:26.531Z,994.68
2016-11-06T09:37:26.548Z,994.72
2016-11-06T09:38:26.565Z,994.73
2016-11-06T09:39:26.590Z,994.7
2016-11-06T09:40:26.608Z,994.78
2016-11-06T09:41:26.631Z,994.76
2016-11-06T09:42:26.649Z,994.75
2016-11-06T09:43:26.672Z,994.76
2016-11-06T09:44:26.694Z,994.78
2016-11-06T09:45:26.712Z,994.73
2016-11-06T09:46:26.732Z,994.74
2016-11-06T09:47:26.776Z,994.74
2016-11-06T09:48:26.778Z,994.76
2016-11-06T09:49:26.795Z,994.79
2016-11-06T09:51:26.837Z,994.89
2016-11-06T09:52:26.860Z,994.87
2016-11-06T09:53:26.878Z,994.9
2016-11-06T09:54:26.901Z,994.93
2016-11-06T09:55:26.922Z,994.98
2016-11-06T09:56:26.940Z,994.99
2016-11-06T09:57:26.964Z,995.02
2016-11-06T09:58:26.983Z,995.06
2016-11-06T09:59:27.004Z,994.99
2016-11-06T10:00:27.026Z,995.02
2016-11-06T10:01:27.047Z,994.99
2016-11-06T10:02:27.069Z,995.02
2016-11-06T10:03:27.088Z,995.08
2016-11-06T10:04:27.111Z,995.09
2016-11-06T10:06:27.154Z,995.15
2016-11-06T10:07:27.174Z,995.17
2016-11-06T10:08:27.196Z,995.2
2016-11-06T10:09:27.218Z,995.18
2016-11-06T10:10:27.238Z,995.2
2016-11-06T10:11:27.257Z,995.25
2016-11-06T10:12:27.280Z,995.19
2016-11-06T10:13:27.302Z,995.22
2016-11-06T10:14:27.320Z,995.22
2016-11-06T10:15:27.342Z,995.22
2016-11-06T10:16:27.363Z,995.21
2016-11-06T10:17:27.399Z,995.24
2016-11-06T10:18:27.405Z,995.22
2016-11-06T10:19:27.427Z,995.26
2016-11-06T10:20:27.449Z,995.26
2016-11-06T10:21:27.471Z,995.24
2016-11-06T10:22:27.492Z,995.24
2016-11-06T10:23:27.514Z,995.21
2016-11-06T10:24:27.535Z,995.22
2016-11-06T10:25:27.556Z,995.19
2016-11-06T10:26:27.575Z,995.16
2016-11-06T10:27:27.597Z,995.09
2016-11-06T10:28:27.620Z,995.16
2016-11-06T10:29:27.641Z,995.18
2016-11-06T10:30:27.661Z,995.16
2016-11-06T10:31:27.684Z,995.15
2016-11-06T10:32:27.704Z,995.12
2016-11-06T10:33:27.728Z,995.09
2016-11-06T10:34:27.747Z,995.04
2016-11-06T10:35:27.768Z,995.02
2016-11-06T10:36:27.788Z,994.99
2016-11-06T10:38:27.832Z,994.98
2016-11-06T10:39:27.853Z,994.91
2016-11-06T10:40:27.876Z,994.93
2016-11-06T10:41:27.896Z,994.92
2016-11-06T10:42:27.917Z,994.92
2016-11-06T10:43:27.941Z,994.93
2016-11-06T10:44:27.962Z,994.92
2016-11-06T10:45:28.034Z,994.91
2016-11-06T10:46:28.003Z,994.92
2016-11-06T10:47:28.026Z,994.92
2016-11-06T10:48:28.046Z,994.94
2016-11-06T10:49:28.068Z,994.94
2016-11-06T10:50:28.090Z,994.94
2016-11-06T10:51:28.113Z,994.91
2016-11-06T10:52:28.134Z,994.96
2016-11-06T10:54:28.176Z,994.92
2016-11-06T10:55:28.199Z,994.87
2016-11-06T10:56:28.219Z,994.83
2016-11-06T10:57:28.243Z,994.8
2016-11-06T10:58:28.265Z,994.81
2016-11-06T10:59:28.284Z,994.78
2016-11-06T11:00:28.307Z,994.76
2016-11-06T11:01:28.328Z,994.71
2016-11-06T11:02:28.350Z,994.72
2016-11-06T11:03:28.372Z,994.73
2016-11-06T11:04:28.394Z,994.63
2016-11-06T11:05:28.416Z,994.64
2016-11-06T11:06:28.435Z,994.61
2016-11-06T11:07:28.457Z,994.63
2016-11-06T11:08:28.479Z,994.59
2016-11-06T11:10:28.522Z,994.53
2016-11-06T11:11:28.546Z,994.41
2016-11-06T11:12:28.565Z,994.45
2016-11-06T11:13:28.588Z,994.49
2016-11-06T11:14:28.610Z,994.41
2016-11-06T11:15:28.632Z,994.42
2016-11-06T11:16:28.654Z,994.42
2016-11-06T11:17:28.674Z,994.41
2016-11-06T11:18:28.696Z,994.4
2016-11-06T11:19:28.716Z,994.43
2016-11-06T11:20:28.739Z,994.4
2016-11-06T11:21:28.759Z,994.33
2016-11-06T11:22:28.780Z,994.41
2016-11-06T11:23:28.806Z,994.42
2016-11-06T11:24:28.825Z,994.42
2016-11-06T11:26:28.869Z,994.39
2016-11-06T11:27:28.891Z,994.3
2016-11-06T11:28:28.912Z,994.28
2016-11-06T11:29:28.934Z,994.33
2016-11-06T11:30:28.956Z,994.35
2016-11-06T11:31:28.975Z,994.38
2016-11-06T11:32:28.999Z,994.43
2016-11-06T11:33:29.019Z,994.42
2016-11-06T11:34:29.041Z,994.36
2016-11-06T11:35:29.064Z,994.38
2016-11-06T11:36:29.084Z,994.42
2016-11-06T11:37:29.108Z,994.43
2016-11-06T11:38:29.130Z,994.46
2016-11-06T11:39:29.152Z,994.48
2016-11-06T11:41:29.197Z,994.54
2016-11-06T11:42:29.216Z,994.46
2016-11-06T11:43:29.240Z,994.47
2016-11-06T11:44:29.262Z,994.44
2016-11-06T11:45:29.284Z,994.44
2016-11-06T11:46:29.303Z,994.46
2016-11-06T11:47:29.326Z,994.46
2016-11-06T11:48:29.348Z,994.49
2016-11-06T11:49:29.371Z,994.5
2016-11-06T11:50:29.391Z,994.5
2016-11-06T11:51:29.416Z,994.5
2016-11-06T11:52:29.438Z,994.55
2016-11-06T11:53:29.459Z,994.51
2016-11-06T11:54:29.481Z,994.49
2016-11-06T11:55:29.501Z,994.45
2016-11-06T11:56:29.526Z,994.46
2016-11-06T11:57:29.547Z,994.47
2016-11-06T11:58:29.569Z,994.49
2016-11-06T11:59:29.591Z,994.47
2016-11-06T12:00:29.612Z,994.47
2016-11-06T12:01:29.732Z,994.43
2016-11-06T12:02:29.654Z,994.41
2016-11-06T12:03:29.676Z,994.47
2016-11-06T12:04:29.697Z,994.48
2016-11-06T12:05:29.721Z,994.42
2016-11-06T12:06:29.741Z,994.4
2016-11-06T12:07:29.763Z,994.42
2016-11-06T12:08:29.784Z,994.42
2016-11-06T12:09:29.806Z,994.38
2016-11-06T12:10:29.831Z,994.36
2016-11-06T12:11:29.852Z,994.35
2016-11-06T12:13:29.896Z,994.32
2016-11-06T12:14:29.918Z,994.28
2016-11-06T12:15:29.939Z,994.21
2016-11-06T12:16:29.961Z,994.2
2016-11-06T12:17:29.981Z,994.18
2016-11-06T12:18:30.003Z,994.2
2016-11-06T12:19:30.026Z,994.21
2016-11-06T12:20:30.046Z,994.21
2016-11-06T12:21:30.071Z,994.18
2016-11-06T12:22:30.091Z,994.16
2016-11-06T12:23:30.112Z,994.11
2016-11-06T12:24:30.133Z,994.06
2016-11-06T12:25:30.155Z,994.08
2016-11-06T12:26:30.177Z,994.07
2016-11-06T12:27:30.199Z,993.99
2016-11-06T12:29:30.246Z,994.08
2016-11-06T12:30:30.266Z,994.12
2016-11-06T12:31:30.289Z,994.1
2016-11-06T12:32:30.311Z,994.12
2016-11-06T12:33:30.330Z,994.06
2016-11-06T12:34:30.352Z,994.06
2016-11-06T12:35:30.376Z,994.02
2016-11-06T12:36:30.398Z,994.02
2016-11-06T12:37:30.417Z,994.02
2016-11-06T12:38:30.442Z,993.97
2016-11-06T12:39:30.464Z,993.98
2016-11-06T12:40:30.484Z,994
2016-11-06T12:41:30.505Z,994.02
2016-11-06T12:42:30.527Z,994
2016-11-06T12:43:30.550Z,994.02
2016-11-06T12:45:30.595Z,994.03
2016-11-06T12:46:30.617Z,994.07
2016-11-06T12:47:30.637Z,994.11
2016-11-06T12:48:30.658Z,994.14
2016-11-06T12:49:30.682Z,994.11
2016-11-06T12:50:30.704Z,994.14
2016-11-06T12:51:30.724Z,994.12
2016-11-06T12:52:30.745Z,994.11
2016-11-06T12:53:30.767Z,994.09
2016-11-06T12:54:30.792Z,994.06
2016-11-06T12:55:30.810Z,994.1
2016-11-06T12:56:30.834Z,994.09
2016-11-06T12:57:30.856Z,994.09
2016-11-06T12:58:30.879Z,994.11
2016-11-06T12:59:30.897Z,994.05
2016-11-06T13:01:30.941Z,993.99
2016-11-06T13:02:30.965Z,994.01
2016-11-06T13:03:30.986Z,994.1
2016-11-06T13:04:31.006Z,994.05
2016-11-06T13:05:31.028Z,994.03
2016-11-06T13:06:31.049Z,994.03
2016-11-06T13:07:31.071Z,994.05
2016-11-06T13:08:31.093Z,994.04
2016-11-06T13:09:31.117Z,994.06
2016-11-06T13:10:31.136Z,994.1
2016-11-06T13:11:31.160Z,994.08
2016-11-06T13:12:31.182Z,994.08
2016-11-06T13:13:31.202Z,994.08